sensor_id;sensor_type;location;lat;lon;timestamp;temperature;humidity
7498;DHT22;3790;48.806;9.140;2023-12-20T10:00:09;4.90;99.90
7498;DHT22;3790;48.806;9.140;2023-12-20T10:05:15;5.00;99.90
7498;DHT22;3790;48.806;9.140;2023-12-20T10:10:16;5.20;99.90
7498;DHT22;3790;48.806;9.140;2023-12-20T10:15:16;5.40;99.90
7498;DHT22;3790;48.806;9.140;2023-12-20T10:20:17;5.60;99.90
7498;DHT22;3790;48.806;9.140;2023-12-20T10:25:17;5.70;99.90
7498;DHT22;3790;48.806;9.140;2023-12-20T10:30:18;5.60;99.90
7498;DHT22;3790;48.806;9.140;2023-12-20T10:35:19;5.60;99.90
7498;DHT22;3790;48.806;9.140;2023-12-20T10:40:20;5.70;99.90
7498;DHT22;3790;48.806;9.140;2023-12-20T10:45:22;5.60;99.90
7498;DHT22;3790;48.806;9.140;2023-12-20T10:50:24;5.60;99.90
7498;DHT22;3790;48.806;9.140;2023-12-20T10:55:25;5.50;99.90
7498;DHT22;3790;48.806;9.140;2023-12-20T11:00:26;5.50;99.90
7498;DHT22;3790;48.806;9.140;2023-12-20T11:05:47;5.60;99.90
7498;DHT22;3790;48.806;9.140;2023-12-20T11:11:02;5.50;99.90
7498;DHT22;3790;48.806;9.140;2023-12-20T11:16:05;5.70;99.90
7498;DHT22;3790;48.806;9.140;2023-12-20T11:21:07;5.60;99.90
7498;DHT22;3790;48.806;9.140;2023-12-20T11:26:08;5.60;99.90
7498;DHT22;3790;48.806;9.140;2023-12-20T11:31:14;5.70;99.90
7498;DHT22;3790;48.806;9.140;2023-12-20T11:36:18;5.60;99.90
7498;DHT22;3790;48.806;9.140;2023-12-20T11:41:23;5.60;99.90
7498;DHT22;3790;48.806;9.140;2023-12-20T11:46:25;5.70;99.90
7498;DHT22;3790;48.806;9.140;2023-12-20T11:51:26;5.90;99.90
7498;DHT22;3790;48.806;9.140;2023-12-20T11:56:26;5.70;99.90
7498;DHT22;3790;48.806;9.140;2023-12-20T12:01:27;5.60;99.90
7498;DHT22;3790;48.806;9.140;2023-12-20T12:06:28;5.60;99.90
7498;DHT22;3790;48.806;9.140;2023-12-20T12:11:28;5.60;99.90
7498;DHT22;3790;48.806;9.140;2023-12-20T12:16:29;5.50;99.90
7498;DHT22;3790;48.806;9.140;2023-12-20T12:21:30;5.60;99.90
7498;DHT22;3790;48.806;9.140;2023-12-20T12:26:30;5.70;99.90
7498;DHT22;3790;48.806;9.140;2023-12-20T12:31:31;5.90;99.90
7498;DHT22;3790;48.806;9.140;2023-12-20T12:36:32;6.00;99.90
7498;DHT22;3790;48.806;9.140;2023-12-20T12:41:32;5.90;99.90
7498;DHT22;3790;48.806;9.140;2023-12-20T12:46:33;5.70;99.90
7498;DHT22;3790;48.806;9.140;2023-12-20T12:51:34;5.70;99.90
7498;DHT22;3790;48.806;9.140;2023-12-20T12:56:35;5.80;99.90
7498;DHT22;3790;48.806;9.140;2023-12-20T13:01:35;5.90;99.90
7498;DHT22;3790;48.806;9.140;2023-12-20T13:06:37;5.90;99.90
7498;DHT22;3790;48.806;9.140;2023-12-20T13:11:38;6.00;99.90
7498;DHT22;3790;48.806;9.140;2023-12-20T13:16:38;5.90;99.90
7498;DHT22;3790;48.806;9.140;2023-12-20T13:21:39;5.70;99.90
7498;DHT22;3790;48.806;9.140;2023-12-20T13:26:40;5.70;99.90
7498;DHT22;3790;48.806;9.140;2023-12-20T13:31:40;5.60;99.90
7498;DHT22;3790;48.806;9.140;2023-12-20T13:36:41;5.70;99.90
7498;DHT22;3790;48.806;9.140;2023-12-20T13:41:42;5.80;99.90
7498;DHT22;3790;48.806;9.140;2023-12-20T13:46:42;5.80;99.90
7498;DHT22;3790;48.806;9.140;2023-12-20T13:51:43;5.80;99.90
7498;DHT22;3790;48.806;9.140;2023-12-20T13:56:44;5.80;99.90
7498;DHT22;3790;48.806;9.140;2023-12-20T14:01:45;5.80;99.90
7498;DHT22;3790;48.806;9.140;2023-12-20T14:06:45;5.70;99.90
7498;DHT22;3790;48.806;9.140;2023-12-20T14:11:46;5.60;99.90
7498;DHT22;3790;48.806;9.140;2023-12-20T14:16:47;5.60;99.90
7498;DHT22;3790;48.806;9.140;2023-12-20T14:21:48;5.70;99.90
7498;DHT22;3790;48.806;9.140;2023-12-20T14:26:48;5.70;99.90
